Shady Grove, Illinois
Current Conditions -  °F | °C
As of 2:55 PM on Tuesday 21 Oct 2014 (Local Time) from KM30 Reporting Station
Clear Clear  
Wind Chill: 70°   Ceiling: Unl
Heat Index: 70°   Visibility: 10mi
Dew Point: 45°   Wind: 12mph
Humidity: 40%   Direction: 350°N
Pressure: 30.06"   Gusts: NA
Location:  37.1362°N, 88.5694°W
Report Text: KM30 211955Z AUTO 35010KT 10SM CLR 21/07 A3006 RMK AO2 T02130071
Loading
Personal Weather Stations






























Interactive Weather Map
Tropical Storm Tracking
New forecast layout! Learn more

10-Day Weather Forecast

Advertisements
Track Severe Weather on mobile